Glenlivet, United Kingdom
Current Conditions -  °F | °C
As of 12:50 AM on Sunday 21 Dec 2014 (Local Time) from EGQK Reporting Station
Broken Clouds Broken Clouds  
Wind Chill: 38°   Ceiling: 6000
Heat Index: 45°   Visibility: 6mi
Dew Point: 39°   Wind: 13mph
Humidity: 81%   Direction: 220°SW
Pressure: 29.94"   Gusts: NA
Location:  57.35°N, 3.35°W
Report Text: EGQK 210050Z AUTO 22011KT 9999 BKN060/// 07/04 Q1014 RERA
Loading
Personal Weather Stations






























Interactive Weather Map New forecast layout! Learn more

10-Day Weather Forecast

Advertisements
Track Severe Weather on mobile